createdAt,value
2023-04-09T00:00:04.526Z,77.12
2023-04-09T00:02:26.628Z,77.27
2023-04-09T00:04:48.251Z,77.43
2023-04-09T00:07:09.871Z,77.18
2023-04-09T00:09:32.075Z,78.88
2023-04-09T00:11:53.526Z,78.54
2023-04-09T00:14:14.970Z,78.56
2023-04-09T00:16:36.451Z,78.21
2023-04-09T00:18:58.012Z,78.07
2023-04-09T00:21:20.578Z,78.29
2023-04-09T00:23:42.672Z,78.70
2023-04-09T00:26:04.255Z,78.37
2023-04-09T00:28:25.815Z,78.20
2023-04-09T00:30:47.257Z,77.95
2023-04-09T00:33:08.719Z,78.13
2023-04-09T00:35:30.671Z,77.82
2023-04-09T00:37:52.203Z,77.61
2023-04-09T00:40:14.222Z,77.40
2023-04-09T00:42:37.490Z,77.84
2023-04-09T00:44:59.405Z,78.23
2023-04-09T00:47:21.322Z,77.89
2023-04-09T00:49:42.873Z,78.06
2023-04-09T00:52:04.664Z,78.42
2023-04-09T00:54:26.174Z,81.15
2023-04-09T00:56:47.745Z,79.73
2023-04-09T00:59:09.219Z,78.93
2023-04-09T01:01:30.972Z,80.78
2023-04-09T01:03:52.627Z,80.29
2023-04-09T01:06:32.612Z,80.09
2023-04-09T01:09:18.077Z,79.71
2023-04-09T01:11:58.044Z,79.90
2023-04-09T01:14:44.114Z,80.57
2023-04-09T01:17:15.752Z,82.21
2023-04-09T01:19:58.671Z,80.80
2023-04-09T01:22:32.648Z,80.71
2023-04-09T01:25:07.207Z,80.38
2023-04-09T01:27:39.400Z,80.10
2023-04-09T01:30:03.471Z,80.14
2023-04-09T01:32:25.927Z,79.66
2023-04-09T01:34:48.308Z,79.35
2023-04-09T01:37:10.856Z,79.29
2023-04-09T01:39:32.820Z,81.46
2023-04-09T01:41:56.244Z,82.06
2023-04-09T01:44:19.344Z,81.09
2023-04-09T01:46:41.372Z,80.46
2023-04-09T01:49:03.101Z,80.50
2023-04-09T01:51:24.758Z,79.94
2023-04-09T01:53:46.347Z,79.70
2023-04-09T01:56:09.634Z,79.87
2023-04-09T01:58:34.108Z,79.94
2023-04-09T02:01:18.788Z,80.07
2023-04-09T02:03:46.390Z,80.83
2023-04-09T02:06:16.198Z,81.88
2023-04-09T02:08:37.885Z,83.00
2023-04-09T02:11:04.046Z,82.51
2023-04-09T02:13:27.319Z,82.46
2023-04-09T02:15:51.164Z,82.33
2023-04-09T02:18:27.459Z,81.67
2023-04-09T02:20:49.098Z,82.29
2023-04-09T02:23:10.545Z,82.25
2023-04-09T02:25:32.076Z,82.05
2023-04-09T02:27:53.528Z,81.51
2023-04-09T02:30:14.989Z,81.20
2023-04-09T02:32:36.469Z,81.21
2023-04-09T02:34:57.892Z,81.18
2023-04-09T02:37:19.379Z,83.73
2023-04-09T02:39:40.877Z,83.33
2023-04-09T02:42:02.336Z,82.62
2023-04-09T02:44:23.820Z,82.18
2023-04-09T02:46:48.326Z,82.01
2023-04-09T02:49:09.764Z,81.62
2023-04-09T02:51:31.476Z,81.32
2023-04-09T02:53:53.212Z,81.21
2023-04-09T02:56:14.694Z,81.15
2023-04-09T02:58:36.197Z,81.03
2023-04-09T03:00:57.657Z,80.82
2023-04-09T03:03:19.350Z,80.85
2023-04-09T03:05:41.075Z,80.50
2023-04-09T03:08:02.533Z,81.18
2023-04-09T03:12:52.972Z,80.86
2023-04-09T03:15:14.497Z,80.94
2023-04-09T03:17:36.045Z,81.62
2023-04-09T03:19:57.793Z,81.47
2023-04-09T03:22:19.241Z,81.41
2023-04-09T03:24:40.681Z,81.13
2023-04-09T03:27:02.461Z,80.90
2023-04-09T03:29:23.955Z,80.83
2023-04-09T03:31:45.706Z,80.77
2023-04-09T03:34:07.170Z,80.52
2023-04-09T03:36:28.648Z,81.29
2023-04-09T03:38:50.617Z,84.00
2023-04-09T03:41:12.320Z,82.41
2023-04-09T03:43:33.750Z,82.00
2023-04-09T03:45:55.195Z,81.91
2023-04-09T03:48:16.633Z,82.71
2023-04-09T03:50:39.833Z,82.58
2023-04-09T03:53:01.437Z,82.13
2023-04-09T03:55:23.008Z,82.04
2023-04-09T03:57:44.447Z,81.76
2023-04-09T04:00:08.354Z,81.17
2023-04-09T04:02:33.744Z,81.33
2023-04-09T04:04:55.653Z,82.11
2023-04-09T04:07:17.068Z,82.62
2023-04-09T04:09:38.499Z,82.68
2023-04-09T04:12:02.349Z,82.68
2023-04-09T04:14:23.825Z,82.44
2023-04-09T04:16:45.419Z,81.95
2023-04-09T04:19:07.272Z,82.05
2023-04-09T04:21:28.718Z,81.85
2023-04-09T04:23:50.274Z,81.73
2023-04-09T04:26:12.145Z,81.50
2023-04-09T04:28:33.584Z,81.34
2023-04-09T04:30:55.103Z,81.42
2023-04-09T04:33:16.573Z,81.80
2023-04-09T04:35:38.153Z,83.68
2023-04-09T04:37:59.675Z,83.54
2023-04-09T04:40:21.151Z,83.16
2023-04-09T04:42:42.761Z,83.09
2023-04-09T04:45:04.520Z,82.59
2023-04-09T04:47:26.101Z,82.84
2023-04-09T04:49:47.633Z,83.34
2023-04-09T04:52:09.130Z,83.95
2023-04-09T04:54:30.596Z,83.51
2023-04-09T04:56:52.075Z,83.63
2023-04-09T04:59:13.507Z,84.31
2023-04-09T05:01:35.016Z,85.09
2023-04-09T05:03:56.845Z,84.41
2023-04-09T05:06:18.530Z,83.70
2023-04-09T05:08:40.076Z,83.08
2023-04-09T05:11:01.536Z,84.22
2023-04-09T05:13:24.037Z,83.80
2023-04-09T05:15:45.857Z,83.49
2023-04-09T05:18:08.392Z,83.35
2023-04-09T05:20:29.851Z,83.22
2023-04-09T05:22:51.261Z,82.48
2023-04-09T05:25:16.231Z,82.51
2023-04-09T05:27:37.916Z,82.12
2023-04-09T05:30:00.867Z,82.01
2023-04-09T05:32:22.651Z,81.88
2023-04-09T05:34:44.267Z,82.00
2023-04-09T05:37:05.725Z,82.63
2023-04-09T05:39:27.185Z,82.44
2023-04-09T05:41:48.647Z,81.44
2023-04-09T05:44:10.349Z,82.12
2023-04-09T05:46:31.917Z,82.46
2023-04-09T05:48:53.747Z,82.65
2023-04-09T05:51:15.768Z,82.42
2023-04-09T05:53:37.203Z,84.39
2023-04-09T05:55:58.782Z,85.22
2023-04-09T05:58:21.266Z,85.01
2023-04-09T06:00:42.764Z,84.02
2023-04-09T06:03:04.840Z,84.47
2023-04-09T06:05:26.586Z,85.28
2023-04-09T06:07:48.239Z,84.41
2023-04-09T06:10:09.706Z,83.86
2023-04-09T06:12:31.182Z,84.41
2023-04-09T06:14:52.649Z,84.53
2023-04-09T06:17:14.194Z,83.82
2023-04-09T06:19:35.863Z,82.94
2023-04-09T06:21:57.374Z,81.85
2023-04-09T06:24:18.894Z,81.29
2023-04-09T06:26:40.403Z,81.72
2023-04-09T06:29:02.149Z,82.07
2023-04-09T06:31:23.643Z,81.22
2023-04-09T06:33:45.076Z,79.46
2023-04-09T06:36:07.153Z,78.41
2023-04-09T06:38:28.683Z,78.94
2023-04-09T06:40:50.447Z,78.55
2023-04-09T06:43:11.978Z,78.70
2023-04-09T06:45:33.817Z,79.60
2023-04-09T06:47:55.923Z,78.68
2023-04-09T06:50:17.494Z,77.79
2023-04-09T06:52:38.931Z,78.32
2023-04-09T06:55:00.398Z,77.44
2023-04-09T06:57:21.838Z,76.89
2023-04-09T06:59:43.266Z,77.71
2023-04-09T07:02:04.811Z,77.07
2023-04-09T07:04:27.191Z,76.14
2023-04-09T07:06:48.690Z,74.51
2023-04-09T07:09:10.256Z,72.27
2023-04-09T07:11:31.682Z,70.68
2023-04-09T07:13:53.681Z,68.82
2023-04-09T07:16:15.428Z,67.58
2023-04-09T07:18:37.131Z,67.27
2023-04-09T07:20:59.336Z,65.37
2023-04-09T07:23:21.483Z,65.54
2023-04-09T07:25:43.599Z,65.29
2023-04-09T07:28:05.131Z,66.02
2023-04-09T07:30:26.644Z,65.77
2023-04-09T07:32:48.176Z,67.16
2023-04-09T07:35:09.995Z,64.97
2023-04-09T07:37:31.428Z,62.58
2023-04-09T07:39:53.500Z,63.19
2023-04-09T07:42:14.979Z,63.04
2023-04-09T07:44:36.980Z,63.62
2023-04-09T07:46:58.510Z,63.12
2023-04-09T07:49:21.703Z,62.69
2023-04-09T07:51:43.679Z,61.20
2023-04-09T07:54:05.337Z,62.66
2023-04-09T07:56:26.790Z,61.50
2023-04-09T07:58:49.258Z,60.00
2023-04-09T08:01:10.872Z,58.97
2023-04-09T08:03:32.556Z,60.01
2023-04-09T08:05:54.178Z,59.60
2023-04-09T08:08:15.793Z,58.52
2023-04-09T08:10:37.320Z,58.93
2023-04-09T08:12:58.779Z,58.54
2023-04-09T08:15:20.363Z,57.12
2023-04-09T08:17:41.871Z,55.53
2023-04-09T08:20:06.852Z,56.04
2023-04-09T08:22:28.293Z,56.09
2023-04-09T08:24:53.232Z,55.68
2023-04-09T08:27:14.707Z,55.28
2023-04-09T08:29:36.150Z,55.33
2023-04-09T08:31:57.644Z,56.11
2023-04-09T08:34:21.148Z,55.91
2023-04-09T08:36:45.668Z,56.77
2023-04-09T08:39:07.185Z,55.65
2023-04-09T08:41:29.815Z,55.83
2023-04-09T08:43:58.368Z,56.27
2023-04-09T08:46:22.015Z,54.75
2023-04-09T08:48:48.475Z,55.29
2023-04-09T08:51:13.744Z,54.90
2023-04-09T08:53:36.286Z,56.17
2023-04-09T08:55:57.733Z,56.23
2023-04-09T08:58:19.144Z,56.15
2023-04-09T09:00:40.831Z,54.49
2023-04-09T09:03:13.112Z,56.00
2023-04-09T09:05:45.422Z,55.03
2023-04-09T09:08:12.182Z,55.26
2023-04-09T09:10:41.674Z,53.66
2023-04-09T09:13:16.987Z,54.87
2023-04-09T09:15:38.464Z,54.17
2023-04-09T09:18:00.902Z,53.93
2023-04-09T09:20:23.569Z,53.06
2023-04-09T09:22:55.199Z,52.13
2023-04-09T09:25:17.346Z,52.43
2023-04-09T09:27:40.555Z,50.03
2023-04-09T09:30:06.510Z,49.33
2023-04-09T09:32:28.118Z,49.89
2023-04-09T09:35:06.842Z,49.47
2023-04-09T09:37:29.762Z,48.28
2023-04-09T09:39:51.220Z,48.21
2023-04-09T09:42:12.618Z,47.33
2023-04-09T09:44:34.090Z,46.69
2023-04-09T09:46:56.287Z,47.12
2023-04-09T09:49:17.762Z,47.00
2023-04-09T09:51:40.549Z,46.58
2023-04-09T09:54:03.063Z,45.61
2023-04-09T09:56:46.354Z,45.17
2023-04-09T09:59:21.915Z,45.01
2023-04-09T10:01:46.131Z,43.03
2023-04-09T10:04:13.677Z,43.21
2023-04-09T10:06:35.643Z,43.51
2023-04-09T10:08:58.426Z,42.88
2023-04-09T10:11:20.866Z,42.43
2023-04-09T10:13:50.353Z,40.63
2023-04-09T10:16:13.105Z,40.50
2023-04-09T10:18:35.644Z,40.79
2023-04-09T10:21:01.688Z,40.24
2023-04-09T10:23:42.965Z,41.08
2023-04-09T10:26:05.872Z,41.87
2023-04-09T10:28:27.336Z,42.51
2023-04-09T10:30:49.063Z,41.68
2023-04-09T10:33:14.808Z,40.30
2023-04-09T10:35:36.413Z,41.17
2023-04-09T10:38:00.450Z,41.43
2023-04-09T10:40:22.147Z,38.89
2023-04-09T10:42:45.342Z,39.14
2023-04-09T10:47:43.238Z,39.38
2023-04-09T10:50:21.397Z,40.59
2023-04-09T10:52:44.291Z,40.84
2023-04-09T10:55:07.381Z,40.14
2023-04-09T10:57:28.867Z,38.61
2023-04-09T10:59:52.955Z,40.14
2023-04-09T11:02:45.321Z,39.67
2023-04-09T11:05:24.344Z,39.12
2023-04-09T11:07:53.066Z,40.65
2023-04-09T11:10:14.559Z,39.04
2023-04-09T11:12:36.071Z,40.66
2023-04-09T11:14:57.584Z,40.52
2023-04-09T11:17:19.830Z,41.27
2023-04-09T11:19:41.300Z,42.37
2023-04-09T11:22:09.054Z,42.26
2023-04-09T11:24:43.601Z,41.84
2023-04-09T11:27:05.457Z,41.28
2023-04-09T11:29:27.146Z,41.14
2023-04-09T11:31:48.730Z,41.21
2023-04-09T11:34:12.548Z,40.21
2023-04-09T11:36:34.757Z,37.60
2023-04-09T11:38:56.502Z,38.85
2023-04-09T11:41:17.955Z,38.67
2023-04-09T11:43:39.552Z,37.46
2023-04-09T11:46:01.059Z,38.31
2023-04-09T11:48:24.816Z,37.56
2023-04-09T11:50:47.493Z,36.42
2023-04-09T11:53:22.479Z,38.69
2023-04-09T11:55:48.287Z,37.92
2023-04-09T11:58:11.630Z,37.04
2023-04-09T12:00:33.292Z,36.61
2023-04-09T12:03:03.536Z,36.43
2023-04-09T12:05:28.695Z,36.18
2023-04-09T12:07:56.221Z,36.63
2023-04-09T12:10:18.491Z,35.73
2023-04-09T12:12:44.352Z,35.23
2023-04-09T12:15:33.694Z,34.67
2023-04-09T12:17:56.016Z,35.09
2023-04-09T12:20:28.751Z,35.07
2023-04-09T12:22:50.293Z,33.85
2023-04-09T12:25:11.816Z,34.11
2023-04-09T12:27:34.037Z,34.30
2023-04-09T12:29:55.564Z,34.52
2023-04-09T12:32:17.043Z,35.63
2023-04-09T12:34:38.558Z,35.36
2023-04-09T12:37:00.024Z,34.03
2023-04-09T12:39:21.481Z,32.98
2023-04-09T12:41:43.302Z,33.60
2023-04-09T12:44:05.269Z,30.99
2023-04-09T12:46:28.288Z,31.36
2023-04-09T12:48:49.802Z,30.00
2023-04-09T12:51:11.967Z,29.00
2023-04-09T12:53:33.456Z,27.81
2023-04-09T12:55:54.936Z,26.76
2023-04-09T12:58:16.459Z,26.28
2023-04-09T13:00:37.996Z,26.70
2023-04-09T13:02:59.554Z,26.67
2023-04-09T13:05:21.375Z,25.68
2023-04-09T13:07:43.598Z,26.16
2023-04-09T13:10:05.582Z,26.26
2023-04-09T13:12:27.168Z,25.67
2023-04-09T13:14:49.444Z,25.74
2023-04-09T13:17:11.126Z,26.71
2023-04-09T13:19:32.652Z,25.43
2023-04-09T13:21:54.123Z,26.32
2023-04-09T13:24:15.624Z,24.54
2023-04-09T13:26:37.343Z,24.39
2023-04-09T13:28:59.600Z,24.29
2023-04-09T13:31:21.584Z,24.74
2023-04-09T13:33:43.146Z,24.30
2023-04-09T13:36:05.102Z,24.46
2023-04-09T13:38:26.692Z,23.77
2023-04-09T13:40:48.216Z,25.31
2023-04-09T13:43:09.688Z,25.00
2023-04-09T13:45:33.586Z,24.23
2023-04-09T13:47:55.272Z,24.82
2023-04-09T13:50:16.877Z,26.25
2023-04-09T13:52:38.496Z,25.75
2023-04-09T13:54:59.932Z,26.42
2023-04-09T13:57:21.378Z,27.05
2023-04-09T13:59:43.935Z,27.91
2023-04-09T14:02:05.498Z,27.65
2023-04-09T14:04:27.098Z,27.43
2023-04-09T14:06:48.569Z,27.80
2023-04-09T14:09:10.896Z,28.74
2023-04-09T14:11:32.342Z,28.91
2023-04-09T14:13:54.176Z,28.79
2023-04-09T14:16:15.816Z,29.15
2023-04-09T14:18:37.360Z,29.44
2023-04-09T14:20:59.255Z,29.41
2023-04-09T14:23:20.813Z,29.45
2023-04-09T14:25:42.268Z,30.30
2023-04-09T14:28:03.914Z,30.51
2023-04-09T14:30:25.355Z,30.48
2023-04-09T14:32:46.854Z,30.13
2023-04-09T14:35:08.741Z,30.22
2023-04-09T14:37:30.706Z,30.52
2023-04-09T14:39:52.139Z,29.63
2023-04-09T14:42:14.392Z,28.05
2023-04-09T14:44:35.872Z,27.08
2023-04-09T14:46:57.731Z,26.31
2023-04-09T14:49:19.185Z,26.17
2023-04-09T14:51:40.686Z,26.51
2023-04-09T14:54:02.143Z,26.64
2023-04-09T14:56:25.141Z,28.26
2023-04-09T14:58:46.823Z,29.13
2023-04-09T15:01:08.424Z,29.80
2023-04-09T15:03:30.027Z,29.64
2023-04-09T15:05:51.646Z,30.61
2023-04-09T15:08:13.313Z,30.59
2023-04-09T15:10:36.626Z,29.83
2023-04-09T15:12:58.071Z,29.89
2023-04-09T15:15:19.532Z,30.89
2023-04-09T15:17:41.215Z,31.71
2023-04-09T15:20:04.143Z,32.06
2023-04-09T15:22:25.710Z,31.55
2023-04-09T15:24:47.308Z,33.07
2023-04-09T15:27:08.807Z,33.16
2023-04-09T15:29:30.674Z,33.76
2023-04-09T15:31:55.441Z,32.49
2023-04-09T15:34:16.913Z,30.24
2023-04-09T15:36:38.378Z,29.44
2023-04-09T15:38:59.984Z,29.02
2023-04-09T15:41:23.930Z,28.68
2023-04-09T15:43:45.385Z,29.87
2023-04-09T15:46:09.032Z,30.67
2023-04-09T15:48:30.767Z,28.84
2023-04-09T15:50:53.429Z,28.18
2023-04-09T15:53:15.752Z,27.97
2023-04-09T15:55:37.336Z,28.31
2023-04-09T15:57:58.836Z,28.16
2023-04-09T16:00:20.929Z,29.03
2023-04-09T16:02:42.565Z,28.45
2023-04-09T16:05:05.223Z,27.67
2023-04-09T16:07:26.782Z,26.88
2023-04-09T16:09:48.542Z,25.48
2023-04-09T16:12:10.097Z,25.72
2023-04-09T16:14:31.544Z,25.22
2023-04-09T16:16:53.887Z,24.69
2023-04-09T16:19:20.175Z,23.52
2023-04-09T16:21:45.494Z,24.36
2023-04-09T16:24:07.356Z,24.32
2023-04-09T16:26:28.842Z,24.11
2023-04-09T16:28:50.537Z,25.08
2023-04-09T16:31:12.098Z,25.34
2023-04-09T16:33:33.617Z,25.58
2023-04-09T16:35:55.398Z,26.21
2023-04-09T16:38:17.076Z,26.23
2023-04-09T16:40:38.563Z,26.31
2023-04-09T16:43:01.602Z,26.20
2023-04-09T16:45:23.107Z,26.76
2023-04-09T16:47:45.731Z,27.43
2023-04-09T16:50:10.674Z,27.19
2023-04-09T16:52:33.986Z,26.83
2023-04-09T16:54:55.655Z,27.67
2023-04-09T16:57:17.110Z,26.74
2023-04-09T16:59:40.669Z,27.51
2023-04-09T17:02:02.483Z,27.97
2023-04-09T17:04:24.234Z,28.30
2023-04-09T17:06:46.108Z,28.84
2023-04-09T17:09:07.653Z,28.96
2023-04-09T17:11:29.102Z,29.17
2023-04-09T17:13:50.572Z,28.92
2023-04-09T17:16:12.629Z,29.11
2023-04-09T17:18:34.656Z,30.05
2023-04-09T17:20:56.164Z,29.52
2023-04-09T17:23:17.714Z,30.25
2023-04-09T17:28:01.681Z,29.69
2023-04-09T17:30:23.178Z,30.34
2023-04-09T17:32:44.844Z,30.34
2023-04-09T17:35:07.727Z,30.61
2023-04-09T17:37:29.292Z,30.45
2023-04-09T17:39:50.793Z,31.29
2023-04-09T17:42:12.326Z,31.66
2023-04-09T17:44:35.463Z,32.25
2023-04-09T17:46:56.916Z,32.87
2023-04-09T17:49:18.432Z,33.66
2023-04-09T17:51:39.889Z,34.02
2023-04-09T17:54:01.319Z,34.66
2023-04-09T17:56:22.792Z,34.72
2023-04-09T17:58:45.079Z,35.07
2023-04-09T18:01:07.716Z,35.41
2023-04-09T18:03:29.346Z,36.07
2023-04-09T18:05:51.570Z,36.45
2023-04-09T18:08:13.433Z,36.42
2023-04-09T18:10:34.877Z,37.75
2023-04-09T18:12:56.376Z,38.41
2023-04-09T18:15:18.738Z,38.09
2023-04-09T18:17:40.416Z,37.99
2023-04-09T18:20:02.007Z,37.64
2023-04-09T18:22:24.027Z,37.63
2023-04-09T18:24:45.477Z,38.79
2023-04-09T18:27:07.016Z,39.90
2023-04-09T18:29:29.268Z,40.08
2023-04-09T18:31:50.814Z,41.02
2023-04-09T18:34:12.302Z,41.01
2023-04-09T18:36:33.759Z,41.20
2023-04-09T18:38:56.180Z,41.33
2023-04-09T18:41:27.177Z,41.47
2023-04-09T18:43:49.169Z,41.49
2023-04-09T18:46:10.821Z,42.09
2023-04-09T18:48:32.944Z,42.28
2023-04-09T18:50:54.454Z,42.22
2023-04-09T18:53:16.577Z,43.12
2023-04-09T18:55:38.586Z,44.37
2023-04-09T18:58:00.174Z,44.68
2023-04-09T19:00:21.647Z,44.94
2023-04-09T19:02:43.307Z,44.97
2023-04-09T19:05:07.240Z,44.90
2023-04-09T19:07:28.939Z,44.82
2023-04-09T19:09:50.372Z,44.81
2023-04-09T19:12:11.863Z,45.26
2023-04-09T19:14:33.373Z,45.26
2023-04-09T19:16:54.888Z,46.50
2023-04-09T19:19:17.070Z,45.82
2023-04-09T19:21:38.545Z,47.41
2023-04-09T19:24:00.393Z,47.44
2023-04-09T19:26:22.283Z,47.40
2023-04-09T19:28:43.705Z,47.29
2023-04-09T19:31:06.676Z,47.67
2023-04-09T19:33:28.146Z,48.65
2023-04-09T19:35:50.642Z,47.96
2023-04-09T19:38:12.181Z,47.83
2023-04-09T19:40:33.673Z,47.93
2023-04-09T19:42:56.060Z,47.47
2023-04-09T19:45:17.556Z,47.86
2023-04-09T19:47:39.112Z,47.69
2023-04-09T19:50:00.944Z,47.96
2023-04-09T19:52:22.472Z,48.71
2023-04-09T19:54:43.987Z,49.53
2023-04-09T19:57:05.570Z,49.02
2023-04-09T19:59:27.293Z,48.93
2023-04-09T20:01:48.907Z,49.84
2023-04-09T20:04:10.454Z,49.39
2023-04-09T20:06:32.370Z,49.10
2023-04-09T20:08:54.351Z,50.39
2023-04-09T20:11:19.341Z,49.61
2023-04-09T20:13:40.763Z,49.44
2023-04-09T20:16:02.385Z,49.67
2023-04-09T20:18:23.955Z,50.44
2023-04-09T20:20:45.402Z,50.92
2023-04-09T20:23:06.867Z,50.98
2023-04-09T20:25:34.345Z,51.80
2023-04-09T20:27:55.937Z,51.11
2023-04-09T20:30:17.468Z,51.07
2023-04-09T20:32:38.946Z,52.40
2023-04-09T20:35:00.400Z,51.95
2023-04-09T20:37:21.845Z,51.77
2023-04-09T20:39:43.416Z,51.60
2023-04-09T20:42:04.969Z,51.77
2023-04-09T20:44:27.551Z,51.78
2023-04-09T20:46:48.996Z,52.79
2023-04-09T20:49:10.901Z,53.88
2023-04-09T20:51:32.423Z,53.65
2023-04-09T20:53:53.843Z,52.87
2023-04-09T20:56:15.752Z,52.74
2023-04-09T20:58:37.274Z,52.62
2023-04-09T21:01:17.232Z,52.44
2023-04-09T21:03:40.291Z,54.30
2023-04-09T21:06:02.844Z,54.55
2023-04-09T21:08:24.296Z,54.75
2023-04-09T21:10:45.741Z,53.87
2023-04-09T21:13:07.199Z,53.55
2023-04-09T21:15:28.655Z,53.44
2023-04-09T21:17:50.102Z,53.30
2023-04-09T21:20:12.354Z,54.18
2023-04-09T21:22:34.515Z,55.45
2023-04-09T21:24:56.367Z,56.65
2023-04-09T21:27:17.827Z,55.64
2023-04-09T21:29:39.517Z,55.13
2023-04-09T21:32:01.127Z,54.69
2023-04-09T21:34:22.702Z,54.69
2023-04-09T21:36:45.479Z,54.63
2023-04-09T21:39:07.190Z,55.25
2023-04-09T21:41:28.618Z,56.82
2023-04-09T21:43:50.095Z,56.46
2023-04-09T21:46:11.760Z,56.60
2023-04-09T21:48:33.311Z,55.60
2023-04-09T21:50:54.848Z,57.20
2023-04-09T21:53:16.304Z,57.18
2023-04-09T21:55:38.943Z,58.05
2023-04-09T21:58:00.381Z,56.98
2023-04-09T22:00:21.861Z,57.63
2023-04-09T22:02:43.401Z,56.78
2023-04-09T22:05:05.624Z,57.51
2023-04-09T22:07:27.560Z,58.16
2023-04-09T22:09:49.036Z,58.96
2023-04-09T22:12:10.746Z,58.67
2023-04-09T22:14:32.642Z,58.62
2023-04-09T22:16:54.985Z,57.87
2023-04-09T22:19:16.620Z,58.42
2023-04-09T22:21:38.248Z,58.56
2023-04-09T22:23:59.698Z,58.77
2023-04-09T22:26:21.972Z,57.98
2023-04-09T22:28:43.423Z,57.74
2023-04-09T22:31:05.973Z,58.83
2023-04-09T22:33:28.241Z,59.03
2023-04-09T22:35:49.756Z,60.38
2023-04-09T22:38:11.384Z,60.81
2023-04-09T22:40:32.824Z,59.04
2023-04-09T22:42:54.259Z,60.52
2023-04-09T22:45:15.759Z,59.65
2023-04-09T22:47:37.968Z,59.70
2023-04-09T22:49:59.480Z,59.20
2023-04-09T22:52:20.929Z,60.97
2023-04-09T22:54:43.294Z,60.37
2023-04-09T22:57:04.792Z,59.97
2023-04-09T22:59:38.973Z,59.62
2023-04-09T23:02:01.324Z,60.38
2023-04-09T23:04:24.109Z,60.40
2023-04-09T23:06:45.925Z,60.92
2023-04-09T23:09:07.383Z,59.77
2023-04-09T23:11:29.167Z,59.93
2023-04-09T23:13:50.622Z,59.40
2023-04-09T23:16:14.052Z,59.95
2023-04-09T23:18:36.295Z,61.22
2023-04-09T23:20:57.715Z,60.25
2023-04-09T23:23:19.149Z,59.70
2023-04-09T23:25:40.664Z,60.23
2023-04-09T23:28:02.088Z,59.96
2023-04-09T23:30:24.485Z,59.67
2023-04-09T23:32:46.059Z,60.64
2023-04-09T23:35:07.792Z,61.96
2023-04-09T23:37:29.251Z,63.50
2023-04-09T23:39:50.764Z,64.02
2023-04-09T23:42:12.203Z,63.83
2023-04-09T23:44:33.644Z,63.18
2023-04-09T23:46:55.675Z,62.72
2023-04-09T23:49:17.187Z,61.96
2023-04-09T23:51:38.609Z,61.29
2023-04-09T23:54:01.401Z,62.75
2023-04-09T23:56:23.168Z,63.24
2023-04-09T23:58:44.692Z,64.52
